Terminal Aerodrome Forecast
Issued by NWS

Home | Current Version | Previous Version | Text Only | Print | Product List | Glossary On
Versions: 1 2 3 4 5 6 7 8 9 10 11 12 13 14 15 16 17 18 19 20 21 22 23 24 25 26 27 28 29 30 31 32 33 34 35 36 37
000
FTUS44 KEWX 252350
TAFSSF
TAF
KSSF 252350Z 2600/2624 23012G22KT P6SM VCTS BKN040CB
     FM260100 22012KT P6SM BKN040
     FM260500 15008KT P6SM BKN025
     FM260700 14005KT 5SM BR OVC005
     FM261700 15008KT P6SM BKN015
     FM262000 15007KT P6SM BKN035=

USA.gov is the U.S. government's official web portal to all federal, state and local government web resources and services.